Time;durP1;ratioP1;P1;durP2;ratioP2;P2;SDS_P1;SDS_P2;PMS_P1;PMS_P2;Temp;Humidity;BMP_temperature;BMP_pressure;BME280_temperature;BME280_humidity;BME280_pressure;Samples;Min_cycle;Max_cycle;Signal;HPM_P1;HPM_P2
2022/03/04 00:01:59;;;;;;;20.50;15.40;;;;;;;;;;5073696;28;20052;-67
2022/03/04 00:04:26;;;;;;;22.08;15.93;;;;;;;;;;5062025;28;20033;-68
2022/03/04 00:06:56;;;;;;;17.27;15.25;;;;;;;;;;5049074;28;20041;-67
2022/03/04 00:09:22;;;;;;;19.52;15.73;;;;;;;;;;5033776;28;20036;-67
2022/03/04 00:11:48;;;;;;;18.13;16.02;;;;;;;;;;5051073;28;20410;-68
2022/03/04 00:14:14;;;;;;;19.17;15.77;;;;;;;;;;5052597;28;20095;-67
2022/03/04 00:16:40;;;;;;;22.92;15.60;;;;;;;;;;5050894;28;20036;-68
2022/03/04 00:19:06;;;;;;;21.25;15.43;;;;;;;;;;5050700;28;20072;-67
2022/03/04 00:21:37;;;;;;;19.88;15.93;;;;;;;;;;5034934;28;20085;-68
2022/03/04 00:24:05;;;;;;;16.42;14.73;;;;;;;;;;5052301;28;20031;-67
2022/03/04 00:26:30;;;;;;;16.98;15.02;;;;;;;;;;5058054;28;20036;-68
2022/03/04 00:28:57;;;;;;;23.27;15.15;;;;;;;;;;5035077;28;20056;-68
2022/03/04 00:31:23;;;;;;;18.33;14.43;;;;;;;;;;5031777;28;20503;-67
2022/03/04 00:33:49;;;;;;;18.83;15.23;;;;;;;;;;5043754;28;20047;-68
2022/03/04 00:36:15;;;;;;;18.55;15.13;;;;;;;;;;5035059;28;20029;-68
2022/03/04 00:38:40;;;;;;;20.13;15.90;;;;;;;;;;5054732;28;20496;-68
2022/03/04 00:41:06;;;;;;;19.40;16.20;;;;;;;;;;5030292;28;20044;-68
2022/03/04 00:43:32;;;;;;;21.20;15.98;;;;;;;;;;5054114;28;20480;-67
2022/03/04 00:45:57;;;;;;;18.52;15.40;;;;;;;;;;5051901;28;20373;-67
2022/03/04 00:48:23;;;;;;;18.60;15.48;;;;;;;;;;5038047;28;20032;-68
2022/03/04 00:50:49;;;;;;;19.20;15.55;;;;;;;;;;5051047;28;20045;-68
2022/03/04 00:53:14;;;;;;;19.10;15.35;;;;;;;;;;5049147;28;20443;-68
2022/03/04 00:55:40;;;;;;;19.40;15.02;;;;;;;;;;5049645;28;20051;-68
2022/03/04 00:58:06;;;;;;;20.73;15.57;;;;;;;;;;5052531;28;22101;-67
2022/03/04 01:00:33;;;;;;;20.30;16.08;;;;;;;;;;5049096;28;20484;-67
2022/03/04 01:02:59;;;;;;;21.58;16.17;;;;;;;;;;5049006;28;20403;-67
2022/03/04 01:05:25;;;;;;;16.63;14.80;;;;;;;;;;5043164;28;20562;-67
2022/03/04 01:07:50;;;;;;;18.80;14.02;;;;;;;;;;5061856;28;20092;-68
2022/03/04 01:10:16;;;;;;;21.92;15.65;;;;;;;;;;5048550;28;20033;-68
2022/03/04 01:12:42;;;;;;;17.02;14.20;;;;;;;;;;5052521;28;20090;-67
2022/03/04 01:15:09;;;;;;;19.45;14.93;;;;;;;;;;5064489;28;20044;-68
2022/03/04 01:17:35;;;;;;;20.50;15.70;;;;;;;;;;5034152;28;20194;-67
2022/03/04 01:20:02;;;;;;;16.85;15.05;;;;;;;;;;5029048;28;20491;-67
2022/03/04 01:22:28;;;;;;;21.50;16.73;;;;;;;;;;5032625;28;20037;-68
2022/03/04 01:24:53;;;;;;;22.52;16.55;;;;;;;;;;5054692;28;20498;-68
2022/03/04 01:27:19;;;;;;;21.08;17.10;;;;;;;;;;5047391;28;20037;-68
2022/03/04 01:29:46;;;;;;;22.67;16.23;;;;;;;;;;5063493;28;20037;-68
2022/03/04 01:32:11;;;;;;;20.50;16.52;;;;;;;;;;5053623;28;20044;-68
2022/03/04 01:34:37;;;;;;;19.20;15.75;;;;;;;;;;5032971;28;20041;-68
2022/03/04 01:37:03;;;;;;;19.60;16.67;;;;;;;;;;5051309;28;20447;-68
2022/03/04 01:39:29;;;;;;;21.65;16.17;;;;;;;;;;5049571;28;20024;-67
2022/03/04 01:41:55;;;;;;;20.60;16.65;;;;;;;;;;5032717;28;20402;-68
2022/03/04 01:44:21;;;;;;;21.75;16.65;;;;;;;;;;5047496;28;20078;-68
2022/03/04 01:46:46;;;;;;;22.13;16.92;;;;;;;;;;5014716;28;20044;-67
2022/03/04 01:49:13;;;;;;;20.08;16.35;;;;;;;;;;5052070;28;20493;-68
2022/03/04 01:51:38;;;;;;;21.35;16.42;;;;;;;;;;5045907;28;20048;-68
2022/03/04 01:54:04;;;;;;;23.40;16.80;;;;;;;;;;5052915;28;20400;-67
2022/03/04 01:56:30;;;;;;;19.65;16.23;;;;;;;;;;5053287;28;20033;-67
2022/03/04 01:58:56;;;;;;;20.42;16.60;;;;;;;;;;5020605;28;20625;-66
2022/03/04 02:01:21;;;;;;;17.75;15.45;;;;;;;;;;5059566;28;20033;-67
2022/03/04 02:03:48;;;;;;;21.63;16.00;;;;;;;;;;5051737;28;20041;-66
2022/03/04 02:06:14;;;;;;;20.38;16.23;;;;;;;;;;5054312;28;20052;-67
2022/03/04 02:08:39;;;;;;;22.60;17.95;;;;;;;;;;5060941;28;20424;-67
2022/03/04 02:11:05;;;;;;;21.15;16.42;;;;;;;;;;5014584;28;20060;-68
2022/03/04 02:13:31;;;;;;;18.70;16.40;;;;;;;;;;5055221;28;20392;-67
2022/03/04 02:15:56;;;;;;;17.85;15.57;;;;;;;;;;5049659;28;20036;-66
2022/03/04 02:18:22;;;;;;;25.23;16.98;;;;;;;;;;5047741;28;20039;-67
2022/03/04 02:20:50;;;;;;;28.08;16.42;;;;;;;;;;5048648;28;20411;-67
2022/03/04 02:23:17;;;;;;;26.58;18.50;;;;;;;;;;5048694;28;20086;-67
2022/03/04 02:25:46;;;;;;;22.40;16.60;;;;;;;;;;5051482;28;20033;-68
2022/03/04 02:28:11;;;;;;;22.50;17.13;;;;;;;;;;5047005;28;20035;-67
2022/03/04 02:30:37;;;;;;;22.77;16.65;;;;;;;;;;5051863;28;20029;-67
2022/03/04 02:33:06;;;;;;;19.42;16.73;;;;;;;;;;5051904;28;20484;-68
2022/03/04 02:35:34;;;;;;;20.65;17.33;;;;;;;;;;5050831;28;20447;-67
2022/03/04 02:38:00;;;;;;;23.55;17.40;;;;;;;;;;5052683;28;20068;-67
2022/03/04 02:40:26;;;;;;;28.95;17.50;;;;;;;;;;5053762;28;20041;-68
2022/03/04 02:42:52;;;;;;;25.77;17.98;;;;;;;;;;5051257;28;20496;-67
2022/03/04 02:45:18;;;;;;;22.48;17.60;;;;;;;;;;5053007;28;20411;-66
2022/03/04 02:47:44;;;;;;;21.02;17.05;;;;;;;;;;5057992;28;20049;-66
2022/03/04 02:50:10;;;;;;;24.75;17.58;;;;;;;;;;5053822;28;20037;-67
2022/03/04 02:52:35;;;;;;;18.27;15.52;;;;;;;;;;5054643;28;20036;-67
2022/03/04 02:55:01;;;;;;;17.92;16.20;;;;;;;;;;5051930;28;20044;-66
2022/03/04 02:57:26;;;;;;;19.25;16.08;;;;;;;;;;5056449;28;20357;-67
2022/03/04 02:59:52;;;;;;;24.85;17.20;;;;;;;;;;5035374;28;20036;-66
2022/03/04 03:02:18;;;;;;;27.30;17.65;;;;;;;;;;5052691;28;20037;-67
2022/03/04 03:04:43;;;;;;;24.13;18.05;;;;;;;;;;5050500;28;20139;-67
2022/03/04 03:07:09;;;;;;;23.40;18.25;;;;;;;;;;5054289;28;20039;-69
2022/03/04 03:09:34;;;;;;;23.90;17.77;;;;;;;;;;5054633;28;20032;-68
2022/03/04 03:12:00;;;;;;;21.48;16.85;;;;;;;;;;5067293;28;20652;-68
2022/03/04 03:14:25;;;;;;;24.27;18.23;;;;;;;;;;5052353;28;20120;-68
2022/03/04 03:16:51;;;;;;;26.75;17.23;;;;;;;;;;5053571;28;20037;-68
2022/03/04 03:19:17;;;;;;;23.15;17.15;;;;;;;;;;5032412;28;20136;-67
2022/03/04 03:21:43;;;;;;;28.27;18.55;;;;;;;;;;5053191;28;20083;-67
2022/03/04 03:24:08;;;;;;;23.17;17.73;;;;;;;;;;5042723;28;20215;-67
2022/03/04 03:26:34;;;;;;;25.00;17.55;;;;;;;;;;5053725;28;20036;-67
2022/03/04 03:28:59;;;;;;;24.20;17.55;;;;;;;;;;5049750;28;20435;-67
2022/03/04 03:31:25;;;;;;;24.27;16.83;;;;;;;;;;5055989;28;20039;-68
2022/03/04 03:33:51;;;;;;;19.35;17.08;;;;;;;;;;5018071;28;20124;-68
2022/03/04 03:36:20;;;;;;;22.25;17.13;;;;;;;;;;5052498;28;20065;-67
2022/03/04 03:38:45;;;;;;;25.30;17.77;;;;;;;;;;5052985;28;20043;-67
2022/03/04 03:41:11;;;;;;;21.40;16.60;;;;;;;;;;5050985;28;20032;-68
2022/03/04 03:43:37;;;;;;;22.63;17.42;;;;;;;;;;5038068;28;20520;-67
2022/03/04 03:46:02;;;;;;;23.52;16.25;;;;;;;;;;5050416;28;20474;-68
2022/03/04 03:48:28;;;;;;;20.50;16.95;;;;;;;;;;5054679;28;20048;-67
2022/03/04 03:50:53;;;;;;;21.75;15.95;;;;;;;;;;5051140;28;20370;-67
2022/03/04 03:53:19;;;;;;;22.35;17.85;;;;;;;;;;5051321;28;20462;-67
2022/03/04 03:55:45;;;;;;;21.65;16.52;;;;;;;;;;5057388;28;20048;-67
2022/03/04 03:58:10;;;;;;;21.35;17.17;;;;;;;;;;5033279;28;20423;-66
2022/03/04 04:00:36;;;;;;;19.20;16.00;;;;;;;;;;5029256;28;20037;-66
2022/03/04 04:03:02;;;;;;;26.75;18.88;;;;;;;;;;5048620;28;20036;-67
2022/03/04 04:05:28;;;;;;;25.80;19.02;;;;;;;;;;5049811;28;20396;-68
2022/03/04 04:07:57;;;;;;;20.42;17.23;;;;;;;;;;5050818;28;20451;-67
2022/03/04 04:10:22;;;;;;;20.27;16.88;;;;;;;;;;5055405;28;20039;-68
2022/03/04 04:12:48;;;;;;;26.38;18.65;;;;;;;;;;5037650;28;20223;-68
2022/03/04 04:15:13;;;;;;;23.02;17.80;;;;;;;;;;5052546;28;20099;-68
2022/03/04 04:17:39;;;;;;;25.30;18.80;;;;;;;;;;5031124;28;20439;-67
2022/03/04 04:20:06;;;;;;;20.55;16.83;;;;;;;;;;5052617;28;20062;-67
2022/03/04 04:22:31;;;;;;;22.42;17.38;;;;;;;;;;5041037;28;20036;-67
2022/03/04 04:24:57;;;;;;;19.52;16.92;;;;;;;;;;5050573;28;20037;-67
2022/03/04 04:27:23;;;;;;;22.90;16.98;;;;;;;;;;5052631;28;20504;-67
2022/03/04 04:29:48;;;;;;;22.70;17.55;;;;;;;;;;5032384;28;20040;-67
2022/03/04 04:32:14;;;;;;;21.80;16.67;;;;;;;;;;5052372;28;20041;-68
2022/03/04 04:34:39;;;;;;;25.50;18.15;;;;;;;;;;5046895;28;20123;-67
2022/03/04 04:37:05;;;;;;;19.70;17.52;;;;;;;;;;5044624;28;20254;-67
2022/03/04 04:39:31;;;;;;;23.73;18.35;;;;;;;;;;5054563;28;20025;-67
2022/03/04 04:41:56;;;;;;;22.50;18.30;;;;;;;;;;5058524;28;20029;-67
2022/03/04 04:44:22;;;;;;;24.65;17.85;;;;;;;;;;5040498;28;20036;-67
2022/03/04 04:46:48;;;;;;;22.10;17.48;;;;;;;;;;5053284;28;20037;-68
2022/03/04 04:49:14;;;;;;;26.02;18.08;;;;;;;;;;5053969;28;20037;-67
2022/03/04 04:51:39;;;;;;;23.80;17.90;;;;;;;;;;5052903;28;20098;-67
2022/03/04 04:54:05;;;;;;;22.33;16.45;;;;;;;;;;5052844;28;20044;-67
2022/03/04 04:56:30;;;;;;;21.08;17.80;;;;;;;;;;5054045;28;20041;-68
2022/03/04 04:58:56;;;;;;;20.25;17.15;;;;;;;;;;5017612;28;20044;-68
2022/03/04 05:01:22;;;;;;;24.00;17.95;;;;;;;;;;5039840;28;20032;-67
2022/03/04 05:03:47;;;;;;;22.58;16.98;;;;;;;;;;5053020;28;20220;-67
2022/03/04 05:06:13;;;;;;;25.00;17.48;;;;;;;;;;5044100;28;20037;-67
2022/03/04 05:08:38;;;;;;;21.42;15.85;;;;;;;;;;5054267;28;20049;-67
2022/03/04 05:11:04;;;;;;;24.70;16.98;;;;;;;;;;5047601;28;20041;-67
2022/03/04 05:13:30;;;;;;;24.17;17.40;;;;;;;;;;5053010;28;20039;-67
2022/03/04 05:15:55;;;;;;;26.25;17.58;;;;;;;;;;5051761;28;20040;-67
2022/03/04 05:18:21;;;;;;;27.75;19.05;;;;;;;;;;5049733;28;20036;-67
2022/03/04 05:20:46;;;;;;;20.92;17.55;;;;;;;;;;5049358;28;20465;-67
2022/03/04 05:23:58;;;;;;;23.83;17.23;;;;;;;;;;5054351;28;20400;-66
2022/03/04 05:25:57;;;;;;;24.63;17.85;;;;;;;;;;5050069;28;20055;-66
2022/03/04 05:28:23;;;;;;;22.02;16.98;;;;;;;;;;5058301;28;20495;-68
2022/03/04 05:30:49;;;;;;;25.65;17.73;;;;;;;;;;5056091;28;20024;-68
2022/03/04 05:33:14;;;;;;;25.00;18.58;;;;;;;;;;5053974;28;20060;-67
2022/03/04 05:35:40;;;;;;;23.83;17.85;;;;;;;;;;5047070;28;20269;-68
2022/03/04 05:38:05;;;;;;;19.92;16.70;;;;;;;;;;5051406;28;20052;-67
2022/03/04 05:40:32;;;;;;;21.05;17.77;;;;;;;;;;5049332;28;20045;-67
2022/03/04 05:42:58;;;;;;;21.75;16.95;;;;;;;;;;5044631;28;20051;-67
2022/03/04 05:45:23;;;;;;;22.08;16.98;;;;;;;;;;5045807;28;20496;-67
2022/03/04 05:47:49;;;;;;;22.45;17.65;;;;;;;;;;5052710;28;20036;-67
2022/03/04 05:50:15;;;;;;;20.73;16.52;;;;;;;;;;5051121;28;20029;-67
2022/03/04 05:52:41;;;;;;;23.70;17.02;;;;;;;;;;5047725;28;20073;-67
2022/03/04 05:55:07;;;;;;;21.52;17.90;;;;;;;;;;5048870;28;20036;-67
2022/03/04 05:57:33;;;;;;;24.23;17.83;;;;;;;;;;5057469;28;20060;-67
2022/03/04 05:59:59;;;;;;;18.10;16.20;;;;;;;;;;5032960;28;20516;-66
2022/03/04 06:02:27;;;;;;;21.65;16.85;;;;;;;;;;5047897;28;20076;-67
2022/03/04 06:04:53;;;;;;;24.25;17.90;;;;;;;;;;5049770;28;20424;-67
2022/03/04 06:07:19;;;;;;;23.10;17.40;;;;;;;;;;5055869;28;20519;-67
2022/03/04 06:09:44;;;;;;;20.75;17.70;;;;;;;;;;5052162;28;20061;-67
2022/03/04 06:12:10;;;;;;;23.27;18.55;;;;;;;;;;5055854;28;20032;-67
2022/03/04 06:14:36;;;;;;;28.40;19.55;;;;;;;;;;5057487;28;20037;-67
2022/03/04 06:17:02;;;;;;;24.65;17.58;;;;;;;;;;5058304;28;20468;-67
2022/03/04 06:19:28;;;;;;;23.60;17.25;;;;;;;;;;5048055;28;20040;-67
2022/03/04 06:21:54;;;;;;;27.98;19.70;;;;;;;;;;5052652;28;20075;-67
2022/03/04 06:24:20;;;;;;;28.10;17.63;;;;;;;;;;5052457;28;20040;-67
2022/03/04 06:26:46;;;;;;;20.77;16.48;;;;;;;;;;5051758;28;20476;-67
2022/03/04 06:29:12;;;;;;;22.95;17.38;;;;;;;;;;5058479;28;20032;-66
2022/03/04 06:31:37;;;;;;;35.45;21.48;;;;;;;;;;5055142;28;20041;-67
2022/03/04 06:34:03;;;;;;;51.40;27.27;;;;;;;;;;5045066;28;20037;-67
2022/03/04 06:36:28;;;;;;;71.97;31.38;;;;;;;;;;5054323;28;20443;-67
2022/03/04 06:38:54;;;;;;;46.80;26.30;;;;;;;;;;5049636;28;20748;-67
2022/03/04 06:41:20;;;;;;;52.20;28.20;;;;;;;;;;5053211;28;20044;-67
2022/03/04 06:43:45;;;;;;;36.25;23.50;;;;;;;;;;5055545;28;20094;-67
2022/03/04 06:46:11;;;;;;;45.88;28.10;;;;;;;;;;5048598;28;20736;-67
2022/03/04 06:48:37;;;;;;;33.17;20.95;;;;;;;;;;5045199;28;20039;-67
2022/03/04 06:51:03;;;;;;;34.25;20.83;;;;;;;;;;5069757;28;20112;-68
2022/03/04 06:53:29;;;;;;;29.25;19.00;;;;;;;;;;5051499;28;20068;-67
2022/03/04 06:55:55;;;;;;;25.10;18.63;;;;;;;;;;5045644;28;20855;-67
2022/03/04 06:58:20;;;;;;;31.50;18.75;;;;;;;;;;5054360;28;20029;-66
2022/03/04 07:00:47;;;;;;;22.63;17.80;;;;;;;;;;5061440;28;20048;-67
2022/03/04 07:03:13;;;;;;;28.05;18.17;;;;;;;;;;5062509;28;20048;-68
2022/03/04 07:05:40;;;;;;;25.23;18.45;;;;;;;;;;5064235;28;20381;-67
2022/03/04 07:08:11;;;;;;;29.23;18.00;;;;;;;;;;5053444;28;20075;-67
2022/03/04 07:10:38;;;;;;;20.50;16.98;;;;;;;;;;5056191;28;20177;-67
2022/03/04 07:13:04;;;;;;;33.30;19.10;;;;;;;;;;5056946;28;20479;-67
2022/03/04 07:15:30;;;;;;;22.67;17.70;;;;;;;;;;5053077;28;20036;-68
2022/03/04 07:17:56;;;;;;;23.10;17.27;;;;;;;;;;5051790;28;20054;-67
2022/03/04 07:20:21;;;;;;;25.55;17.65;;;;;;;;;;5055347;28;20036;-67
2022/03/04 07:22:47;;;;;;;29.25;19.08;;;;;;;;;;5053395;28;20106;-67
2022/03/04 07:25:15;;;;;;;26.33;18.67;;;;;;;;;;5046758;28;20228;-67
2022/03/04 07:27:41;;;;;;;30.50;19.45;;;;;;;;;;5054009;28;20484;-67
2022/03/04 07:30:12;;;;;;;30.00;20.67;;;;;;;;;;5049797;28;20203;-67
2022/03/04 07:32:39;;;;;;;25.23;18.40;;;;;;;;;;5041325;28;20043;-67
2022/03/04 07:35:07;;;;;;;27.20;18.17;;;;;;;;;;5031004;28;20086;-67
2022/03/04 07:37:35;;;;;;;25.88;18.23;;;;;;;;;;5050001;28;20040;-67
2022/03/04 07:40:01;;;;;;;27.10;19.23;;;;;;;;;;5069882;28;20036;-67
2022/03/04 07:42:27;;;;;;;33.78;19.90;;;;;;;;;;5054212;28;20033;-67
2022/03/04 07:44:52;;;;;;;29.40;20.90;;;;;;;;;;5056508;28;20043;-67
2022/03/04 07:47:18;;;;;;;26.38;18.85;;;;;;;;;;5053955;28;20039;-67
2022/03/04 07:49:43;;;;;;;28.85;20.45;;;;;;;;;;5054797;28;20094;-67
2022/03/04 07:52:09;;;;;;;24.02;19.02;;;;;;;;;;5053164;28;20041;-67
2022/03/04 07:54:35;;;;;;;28.58;21.38;;;;;;;;;;5050108;28;20040;-67
2022/03/04 07:57:01;;;;;;;26.98;20.90;;;;;;;;;;5055979;28;20420;-67
2022/03/04 07:59:26;;;;;;;31.02;20.85;;;;;;;;;;5051838;28;20457;-67
2022/03/04 08:01:52;;;;;;;29.60;20.35;;;;;;;;;;5056028;28;20032;-68
2022/03/04 08:04:18;;;;;;;29.02;22.00;;;;;;;;;;5044034;28;20119;-67
2022/03/04 08:06:43;;;;;;;24.42;21.33;;;;;;;;;;5053914;28;20060;-68
2022/03/04 08:09:09;;;;;;;23.45;20.95;;;;;;;;;;5054337;28;20036;-67
2022/03/04 08:11:34;;;;;;;26.80;20.58;;;;;;;;;;5048615;28;20114;-67
2022/03/04 08:14:00;;;;;;;27.45;21.00;;;;;;;;;;5056415;28;20059;-67
2022/03/04 08:16:29;;;;;;;26.45;21.65;;;;;;;;;;5054878;28;20060;-68
2022/03/04 08:18:55;;;;;;;24.03;21.47;;;;;;;;;;5049740;28;20372;-68
2022/03/04 08:21:22;;;;;;;28.08;22.08;;;;;;;;;;5051878;28;20037;-68
2022/03/04 08:23:48;;;;;;;24.70;21.42;;;;;;;;;;5055672;28;20434;-68
2022/03/04 08:26:14;;;;;;;31.92;22.65;;;;;;;;;;5050739;28;20037;-68
2022/03/04 08:28:40;;;;;;;30.77;22.80;;;;;;;;;;5056463;28;20033;-68
2022/03/04 08:31:10;;;;;;;29.90;22.55;;;;;;;;;;5053537;28;20407;-68
2022/03/04 08:33:41;;;;;;;31.77;22.58;;;;;;;;;;5045698;28;20561;-68
2022/03/04 08:36:07;;;;;;;32.47;23.73;;;;;;;;;;5047650;28;20037;-67
2022/03/04 08:38:33;;;;;;;37.35;23.88;;;;;;;;;;5059179;28;20017;-68
2022/03/04 08:40:59;;;;;;;29.73;22.90;;;;;;;;;;5051389;28;20037;-68
2022/03/04 08:43:25;;;;;;;26.58;22.42;;;;;;;;;;5018289;28;20040;-68
2022/03/04 08:45:51;;;;;;;30.73;22.15;;;;;;;;;;5050917;28;20086;-68
2022/03/04 08:48:16;;;;;;;28.40;22.17;;;;;;;;;;5056509;28;20274;-68
2022/03/04 08:50:42;;;;;;;31.23;24.13;;;;;;;;;;5037675;28;20041;-69
2022/03/04 08:53:08;;;;;;;27.63;22.23;;;;;;;;;;5052036;28;20049;-69
2022/03/04 08:55:34;;;;;;;28.58;22.80;;;;;;;;;;5051395;28;20491;-69
2022/03/04 08:58:00;;;;;;;27.13;22.75;;;;;;;;;;5032834;28;20044;-69
2022/03/04 09:00:28;;;;;;;26.27;21.35;;;;;;;;;;5055597;28;20037;-69
2022/03/04 09:02:55;;;;;;;26.65;22.40;;;;;;;;;;5039567;28;20040;-68
2022/03/04 09:05:21;;;;;;;29.45;22.05;;;;;;;;;;5057551;28;20331;-69
2022/03/04 09:07:47;;;;;;;32.83;22.13;;;;;;;;;;5046851;28;20115;-69
2022/03/04 09:10:13;;;;;;;27.42;21.80;;;;;;;;;;5059234;28;20120;-69
2022/03/04 09:12:39;;;;;;;30.05;23.23;;;;;;;;;;5052249;28;20041;-69
2022/03/04 09:15:07;;;;;;;28.55;23.58;;;;;;;;;;5035400;28;20044;-69
2022/03/04 09:17:33;;;;;;;26.00;21.17;;;;;;;;;;5050074;28;20041;-69
2022/03/04 09:19:58;;;;;;;30.30;24.45;;;;;;;;;;5048915;28;20554;-69
2022/03/04 09:22:24;;;;;;;29.15;23.55;;;;;;;;;;5051102;28;20028;-69
2022/03/04 09:24:50;;;;;;;28.13;22.40;;;;;;;;;;5035816;28;20060;-69
2022/03/04 09:27:15;;;;;;;28.65;24.48;;;;;;;;;;5055042;28;20492;-69
2022/03/04 09:29:41;;;;;;;34.08;23.45;;;;;;;;;;5044537;28;20155;-69
2022/03/04 09:32:07;;;;;;;32.10;24.08;;;;;;;;;;5030232;28;20040;-69
2022/03/04 09:34:32;;;;;;;29.17;22.98;;;;;;;;;;5039479;28;20123;-69
2022/03/04 09:36:58;;;;;;;33.63;24.88;;;;;;;;;;5045714;28;20123;-69
2022/03/04 09:39:24;;;;;;;34.45;24.27;;;;;;;;;;5048319;28;20039;-69
2022/03/04 09:41:50;;;;;;;32.88;23.27;;;;;;;;;;5050504;28;20048;-69
2022/03/04 09:44:16;;;;;;;34.28;23.20;;;;;;;;;;5042536;28;20029;-69
2022/03/04 09:46:44;;;;;;;32.42;22.83;;;;;;;;;;5055520;28;20488;-69
2022/03/04 09:49:11;;;;;;;24.38;21.83;;;;;;;;;;5056490;28;20067;-69
2022/03/04 09:51:36;;;;;;;30.25;22.55;;;;;;;;;;5050159;28;20044;-69
2022/03/04 09:54:02;;;;;;;28.20;22.75;;;;;;;;;;5054048;28;20035;-68
2022/03/04 09:56:29;;;;;;;28.60;21.75;;;;;;;;;;5052412;28;20045;-68
2022/03/04 09:58:55;;;;;;;31.10;21.98;;;;;;;;;;5056425;28;20039;-68
2022/03/04 10:01:20;;;;;;;29.35;22.35;;;;;;;;;;5054655;28;20032;-69
2022/03/04 10:03:51;;;;;;;27.17;21.45;;;;;;;;;;5067655;28;20041;-69
2022/03/04 10:06:19;;;;;;;25.85;20.17;;;;;;;;;;5055122;28;20033;-69
2022/03/04 10:08:52;;;;;;;28.27;21.38;;;;;;;;;;5054929;28;20033;-68
2022/03/04 10:11:31;;;;;;;31.92;21.88;;;;;;;;;;5016666;28;20545;-69
2022/03/04 10:13:59;;;;;;;24.25;20.58;;;;;;;;;;5052226;28;20120;-68
2022/03/04 10:16:35;;;;;;;27.10;21.50;;;;;;;;;;5034302;28;20108;-69
2022/03/04 10:19:20;;;;;;;26.50;20.45;;;;;;;;;;5051267;28;20029;-67
2022/03/04 10:21:55;;;;;;;27.60;20.98;;;;;;;;;;5050142;28;20041;-69
2022/03/04 10:24:50;;;;;;;25.92;20.30;;;;;;;;;;5058072;28;20077;-70
2022/03/04 10:27:17;;;;;;;29.85;22.90;;;;;;;;;;4993378;28;20081;-68
2022/03/04 10:29:48;;;;;;;23.75;20.65;;;;;;;;;;4986595;28;20038;-67
2022/03/04 10:32:26;;;;;;;30.17;21.38;;;;;;;;;;4983688;28;20129;-68
2022/03/04 10:35:01;;;;;;;23.77;20.88;;;;;;;;;;4979046;28;20049;-69
2022/03/04 10:37:56;;;;;;;29.58;22.63;;;;;;;;;;4988235;28;20320;-69
2022/03/04 10:40:26;;;;;;;27.17;20.25;;;;;;;;;;4986149;28;20097;-68
2022/03/04 10:42:54;;;;;;;26.08;22.42;;;;;;;;;;4979134;28;20505;-69
2022/03/04 10:45:28;;;;;;;23.52;19.63;;;;;;;;;;4980364;28;20072;-69
2022/03/04 10:48:00;;;;;;;22.85;20.42;;;;;;;;;;4973823;28;20073;-69
2022/03/04 10:50:33;;;;;;;30.83;23.50;;;;;;;;;;4977595;28;20045;-69
2022/03/04 10:53:05;;;;;;;24.92;22.08;;;;;;;;;;4982832;28;20421;-68
2022/03/04 10:55:35;;;;;;;28.38;22.20;;;;;;;;;;4977796;28;20512;-69
2022/03/04 10:58:04;;;;;;;53.10;29.77;;;;;;;;;;4986146;28;20667;-69
2022/03/04 11:00:34;;;;;;;25.90;21.45;;;;;;;;;;4986487;28;20101;-69
2022/03/04 11:03:02;;;;;;;26.10;21.52;;;;;;;;;;5002846;28;20110;-69
2022/03/04 11:05:28;;;;;;;23.48;20.15;;;;;;;;;;5049602;28;20037;-69
2022/03/04 11:07:54;;;;;;;26.05;21.85;;;;;;;;;;5045174;28;20387;-70
2022/03/04 11:10:20;;;;;;;24.60;21.85;;;;;;;;;;5057082;28;20040;-69
2022/03/04 11:12:50;;;;;;;25.58;21.33;;;;;;;;;;5050362;28;20376;-71
2022/03/04 11:15:16;;;;;;;;;;;;;;;;;;5050947;28;20080;-69
2022/03/04 11:17:42;;;;;;;23.45;19.67;;;;;;;;;;5053195;28;19920;-68
2022/03/04 11:20:09;;;;;;;25.55;22.30;;;;;;;;;;5056562;28;20039;-68
2022/03/04 11:22:39;;;;;;;24.10;20.20;;;;;;;;;;5033415;28;20045;-69
2022/03/04 11:25:08;;;;;;;24.55;21.95;;;;;;;;;;5051159;28;20047;-69
2022/03/04 11:27:40;;;;;;;20.85;18.40;;;;;;;;;;5051125;28;20108;-68
2022/03/04 11:30:06;;;;;;;21.98;19.67;;;;;;;;;;5054386;28;20472;-69
2022/03/04 11:32:31;;;;;;;25.17;21.15;;;;;;;;;;5055285;28;20067;-69
2022/03/04 11:34:57;;;;;;;23.52;20.98;;;;;;;;;;5048059;28;20056;-68
2022/03/04 11:37:23;;;;;;;24.52;20.55;;;;;;;;;;5037377;28;20048;-69
2022/03/04 11:40:32;;;;;;;24.88;21.30;;;;;;;;;;5055638;28;20082;-69
2022/03/04 11:42:52;;;;;;;27.05;21.17;;;;;;;;;;5052993;28;20519;-68
2022/03/04 11:45:30;;;;;;;23.55;21.05;;;;;;;;;;5046493;28;20033;-68
2022/03/04 11:48:08;;;;;;;24.48;19.98;;;;;;;;;;5056518;28;20068;-67
2022/03/04 11:50:38;;;;;;;21.42;19.17;;;;;;;;;;5032610;28;20068;-67
2022/03/04 11:53:17;;;;;;;23.20;19.67;;;;;;;;;;5050307;28;20123;-68
2022/03/04 11:56:12;;;;;;;;;;;;;;;;;;5047563;28;20036;-69
2022/03/04 11:58:54;;;;;;;28.38;21.15;;;;;;;;;;5047359;28;20374;-69
2022/03/04 12:01:33;;;;;;;25.33;20.40;;;;;;;;;;5031330;28;20052;-68
2022/03/04 12:04:12;;;;;;;23.58;21.02;;;;;;;;;;5049444;28;20045;-69
2022/03/04 12:06:39;;;;;;;24.15;20.95;;;;;;;;;;5051873;28;20044;-68
2022/03/04 12:09:27;;;;;;;21.67;19.25;;;;;;;;;;5050713;28;20423;-68
2022/03/04 12:12:12;;;;;;;24.45;20.65;;;;;;;;;;5056142;28;20028;-69
2022/03/04 12:14:47;;;;;;;24.52;20.95;;;;;;;;;;5037835;28;20252;-67
2022/03/04 12:17:15;;;;;;;22.05;19.52;;;;;;;;;;5050490;28;20123;-68
2022/03/04 12:19:41;;;;;;;25.25;20.77;;;;;;;;;;5053264;28;20032;-68
2022/03/04 12:22:07;;;;;;;24.52;21.92;;;;;;;;;;5057556;28;20036;-69
2022/03/04 12:24:35;;;;;;;23.35;20.95;;;;;;;;;;5035510;28;20112;-69
2022/03/04 12:27:02;;;;;;;23.98;21.15;;;;;;;;;;5047005;28;20517;-67
2022/03/04 12:29:42;;;;;;;23.92;20.27;;;;;;;;;;5047203;28;20562;-68
2022/03/04 12:32:08;;;;;;;26.13;20.35;;;;;;;;;;5037710;28;20037;-68
2022/03/04 12:34:37;;;;;;;24.02;21.38;;;;;;;;;;5049255;28;20032;-69
2022/03/04 12:37:08;;;;;;;;;;;;;;;;;;5060839;28;20052;-68
2022/03/04 12:39:37;;;;;;;24.60;20.98;;;;;;;;;;5049016;28;19919;-68
2022/03/04 12:42:06;;;;;;;24.27;21.67;;;;;;;;;;5056042;28;20033;-68
2022/03/04 12:44:32;;;;;;;24.73;21.40;;;;;;;;;;5044835;28;20232;-69
2022/03/04 12:46:58;;;;;;;26.83;21.63;;;;;;;;;;5043213;28;20025;-68
2022/03/04 12:49:29;;;;;;;24.38;21.85;;;;;;;;;;5056794;28;20049;-69
2022/03/04 12:51:54;;;;;;;26.35;21.77;;;;;;;;;;5054040;28;20064;-69
2022/03/04 12:54:25;;;;;;;25.08;21.73;;;;;;;;;;5050794;28;20076;-69
2022/03/04 12:56:59;;;;;;;27.52;21.23;;;;;;;;;;5053125;28;20044;-69
2022/03/04 12:59:30;;;;;;;42.30;23.75;;;;;;;;;;5047511;28;20035;-69
2022/03/04 13:01:57;;;;;;;23.42;20.92;;;;;;;;;;5062022;28;20043;-69
2022/03/04 13:04:24;;;;;;;28.45;21.90;;;;;;;;;;5051412;28;20124;-68
2022/03/04 13:07:00;;;;;;;25.48;21.30;;;;;;;;;;5049699;28;20510;-68
2022/03/04 13:09:28;;;;;;;24.25;21.55;;;;;;;;;;5054588;28;20041;-68
2022/03/04 13:11:54;;;;;;;24.70;22.10;;;;;;;;;;5052756;28;20079;-68
2022/03/04 13:14:22;;;;;;;26.65;22.63;;;;;;;;;;5000545;28;20513;-68
2022/03/04 13:16:49;;;;;;;23.08;20.77;;;;;;;;;;5016098;28;20209;-68
2022/03/04 13:19:17;;;;;;;25.92;22.45;;;;;;;;;;5052822;28;20408;-68
2022/03/04 13:22:04;;;;;;;24.97;22.37;;;;;;;;;;5051544;28;20021;-68
2022/03/04 13:24:35;;;;;;;25.27;21.50;;;;;;;;;;5050798;28;20291;-68
2022/03/04 13:27:04;;;;;;;25.55;22.60;;;;;;;;;;5052215;28;20104;-68
2022/03/04 13:29:32;;;;;;;24.98;22.00;;;;;;;;;;5036732;28;20223;-68
2022/03/04 13:32:18;;;;;;;25.23;22.65;;;;;;;;;;5052487;28;20067;-68
2022/03/04 13:34:48;;;;;;;25.70;22.42;;;;;;;;;;5053646;28;20116;-68
2022/03/04 13:37:18;;;;;;;25.52;20.85;;;;;;;;;;5050655;28;20048;-67
2022/03/04 13:39:55;;;;;;;25.05;21.98;;;;;;;;;;5055111;28;20441;-68
2022/03/04 13:42:23;;;;;;;24.25;21.65;;;;;;;;;;5052140;28;20494;-68
2022/03/04 13:44:52;;;;;;;24.40;21.15;;;;;;;;;;5049990;28;20135;-68
2022/03/04 13:47:40;;;;;;;22.88;20.60;;;;;;;;;;5053921;28;20045;-67
2022/03/04 13:50:28;;;;;;;22.85;20.55;;;;;;;;;;5046970;28;20101;-68
2022/03/04 13:53:03;;;;;;;22.08;19.85;;;;;;;;;;5051622;28;20044;-68
2022/03/04 13:55:44;;;;;;;24.17;20.50;;;;;;;;;;5030801;28;20408;-67
2022/03/04 13:58:15;;;;;;;21.30;19.10;;;;;;;;;;5058038;28;20040;-67
2022/03/04 14:00:42;;;;;;;24.90;19.45;;;;;;;;;;5047240;28;20124;-68
2022/03/04 14:03:13;;;;;;;22.42;19.58;;;;;;;;;;5048240;28;20032;-68
2022/03/04 14:05:41;;;;;;;19.95;17.95;;;;;;;;;;5052644;28;20040;-68
2022/03/04 14:08:13;;;;;;;21.70;19.10;;;;;;;;;;5043245;28;20168;-67
2022/03/04 14:10:40;;;;;;;21.27;19.17;;;;;;;;;;5033341;28;20098;-67
2022/03/04 14:13:08;;;;;;;20.00;18.13;;;;;;;;;;5031048;28;20093;-68
2022/03/04 14:15:36;;;;;;;20.70;18.60;;;;;;;;;;5070080;28;20045;-67
2022/03/04 14:18:04;;;;;;;20.02;17.65;;;;;;;;;;5043617;28;20453;-67
2022/03/04 14:20:31;;;;;;;19.30;17.15;;;;;;;;;;5051596;28;20433;-68
2022/03/04 14:22:56;;;;;;;19.25;17.35;;;;;;;;;;5052534;28;20123;-68